sensor_id;sensor_type;location;lat;lon;timestamp;P1;durP1;ratioP1;P2;durP2;ratioP2
78838;SDS011;68405;47.190;27.558;2023-03-23T00:00:25;74.20;;;42.70;;
78838;SDS011;68405;47.190;27.558;2023-03-23T00:03:14;69.90;;;40.70;;
78838;SDS011;68405;47.190;27.558;2023-03-23T00:05:47;68.40;;;41.60;;
78838;SDS011;68405;47.190;27.558;2023-03-23T00:08:20;68.50;;;41.90;;
78838;SDS011;68405;47.190;27.558;2023-03-23T00:10:52;78.70;;;42.30;;
78838;SDS011;68405;47.190;27.558;2023-03-23T00:13:25;78.20;;;46.30;;
78838;SDS011;68405;47.190;27.558;2023-03-23T00:15:58;71.30;;;43.20;;
78838;SDS011;68405;47.190;27.558;2023-03-23T00:18:30;62.90;;;37.00;;
78838;SDS011;68405;47.190;27.558;2023-03-23T00:21:04;59.30;;;36.70;;
78838;SDS011;68405;47.190;27.558;2023-03-23T00:23:36;60.80;;;38.40;;
78838;SDS011;68405;47.190;27.558;2023-03-23T00:26:08;60.80;;;36.60;;
78838;SDS011;68405;47.190;27.558;2023-03-23T00:28:40;62.20;;;36.20;;
78838;SDS011;68405;47.190;27.558;2023-03-23T00:31:15;73.60;;;42.50;;
78838;SDS011;68405;47.190;27.558;2023-03-23T00:33:47;70.70;;;41.40;;
78838;SDS011;68405;47.190;27.558;2023-03-23T00:36:19;58.70;;;37.80;;
78838;SDS011;68405;47.190;27.558;2023-03-23T00:38:51;55.60;;;34.90;;
78838;SDS011;68405;47.190;27.558;2023-03-23T00:41:27;52.00;;;33.70;;
78838;SDS011;68405;47.190;27.558;2023-03-23T00:43:59;55.50;;;32.70;;
78838;SDS011;68405;47.190;27.558;2023-03-23T00:46:31;58.00;;;33.60;;
78838;SDS011;68405;47.190;27.558;2023-03-23T00:49:02;54.00;;;33.60;;
78838;SDS011;68405;47.190;27.558;2023-03-23T00:51:34;57.10;;;34.00;;
78838;SDS011;68405;47.190;27.558;2023-03-23T00:54:06;61.50;;;38.30;;
78838;SDS011;68405;47.190;27.558;2023-03-23T00:56:38;60.30;;;36.60;;
78838;SDS011;68405;47.190;27.558;2023-03-23T00:59:10;55.20;;;35.80;;
78838;SDS011;68405;47.190;27.558;2023-03-23T01:01:42;53.30;;;31.00;;
78838;SDS011;68405;47.190;27.558;2023-03-23T01:04:14;47.50;;;31.30;;
78838;SDS011;68405;47.190;27.558;2023-03-23T01:06:48;53.80;;;32.50;;
78838;SDS011;68405;47.190;27.558;2023-03-23T01:09:21;56.90;;;34.40;;
78838;SDS011;68405;47.190;27.558;2023-03-23T01:11:52;53.70;;;32.80;;
78838;SDS011;68405;47.190;27.558;2023-03-23T01:14:25;63.50;;;36.40;;
78838;SDS011;68405;47.190;27.558;2023-03-23T01:16:57;65.30;;;38.40;;
78838;SDS011;68405;47.190;27.558;2023-03-23T01:19:28;58.90;;;37.00;;
78838;SDS011;68405;47.190;27.558;2023-03-23T01:22:00;58.70;;;33.80;;
78838;SDS011;68405;47.190;27.558;2023-03-23T01:24:32;49.10;;;30.80;;
78838;SDS011;68405;47.190;27.558;2023-03-23T01:27:04;49.90;;;31.40;;
78838;SDS011;68405;47.190;27.558;2023-03-23T01:29:36;51.90;;;31.70;;
78838;SDS011;68405;47.190;27.558;2023-03-23T01:32:07;49.10;;;30.40;;
78838;SDS011;68405;47.190;27.558;2023-03-23T01:34:39;51.30;;;30.70;;
78838;SDS011;68405;47.190;27.558;2023-03-23T01:37:11;54.70;;;32.50;;
78838;SDS011;68405;47.190;27.558;2023-03-23T01:39:44;61.40;;;37.20;;
78838;SDS011;68405;47.190;27.558;2023-03-23T01:42:15;66.90;;;38.30;;
78838;SDS011;68405;47.190;27.558;2023-03-23T01:48:03;47.30;;;30.30;;
78838;SDS011;68405;47.190;27.558;2023-03-23T01:50:41;51.30;;;29.60;;
78838;SDS011;68405;47.190;27.558;2023-03-23T01:53:19;48.40;;;30.20;;
78838;SDS011;68405;47.190;27.558;2023-03-23T01:55:52;49.20;;;31.30;;
78838;SDS011;68405;47.190;27.558;2023-03-23T01:58:27;50.70;;;31.40;;
78838;SDS011;68405;47.190;27.558;2023-03-23T02:01:03;57.60;;;34.00;;
78838;SDS011;68405;47.190;27.558;2023-03-23T02:03:41;60.60;;;34.10;;
78838;SDS011;68405;47.190;27.558;2023-03-23T02:06:16;58.30;;;33.80;;
78838;SDS011;68405;47.190;27.558;2023-03-23T02:08:47;51.30;;;32.00;;
78838;SDS011;68405;47.190;27.558;2023-03-23T02:11:21;48.70;;;31.60;;
78838;SDS011;68405;47.190;27.558;2023-03-23T02:13:53;53.10;;;32.60;;
78838;SDS011;68405;47.190;27.558;2023-03-23T02:16:27;57.20;;;34.40;;
78838;SDS011;68405;47.190;27.558;2023-03-23T02:19:10;51.00;;;32.70;;
78838;SDS011;68405;47.190;27.558;2023-03-23T02:22:09;63.60;;;37.80;;
78838;SDS011;68405;47.190;27.558;2023-03-23T02:25:06;57.30;;;35.80;;
78838;SDS011;68405;47.190;27.558;2023-03-23T02:28:04;51.20;;;31.50;;
78838;SDS011;68405;47.190;27.558;2023-03-23T02:33:41;51.00;;;31.70;;
78838;SDS011;68405;47.190;27.558;2023-03-23T02:36:20;54.50;;;30.60;;
78838;SDS011;68405;47.190;27.558;2023-03-23T02:39:00;52.40;;;31.70;;
78838;SDS011;68405;47.190;27.558;2023-03-23T02:41:39;47.50;;;28.80;;
78838;SDS011;68405;47.190;27.558;2023-03-23T02:44:15;46.70;;;28.10;;
78838;SDS011;68405;47.190;27.558;2023-03-23T02:46:48;41.50;;;27.00;;
78838;SDS011;68405;47.190;27.558;2023-03-23T02:49:21;43.80;;;26.00;;
78838;SDS011;68405;47.190;27.558;2023-03-23T02:51:55;49.10;;;27.90;;
78838;SDS011;68405;47.190;27.558;2023-03-23T02:54:28;45.20;;;27.10;;
78838;SDS011;68405;47.190;27.558;2023-03-23T02:57:00;57.70;;;31.80;;
78838;SDS011;68405;47.190;27.558;2023-03-23T02:59:32;51.90;;;31.50;;
78838;SDS011;68405;47.190;27.558;2023-03-23T03:02:07;55.00;;;31.50;;
78838;SDS011;68405;47.190;27.558;2023-03-23T03:04:44;52.70;;;33.40;;
78838;SDS011;68405;47.190;27.558;2023-03-23T03:07:33;55.30;;;34.30;;
78838;SDS011;68405;47.190;27.558;2023-03-23T03:10:20;60.30;;;36.00;;
78838;SDS011;68405;47.190;27.558;2023-03-23T03:12:58;65.70;;;36.40;;
78838;SDS011;68405;47.190;27.558;2023-03-23T03:15:41;66.50;;;39.80;;
78838;SDS011;68405;47.190;27.558;2023-03-23T03:18:20;66.90;;;39.20;;
78838;SDS011;68405;47.190;27.558;2023-03-23T03:20:58;55.90;;;33.70;;
78838;SDS011;68405;47.190;27.558;2023-03-23T03:23:34;57.50;;;32.50;;
78838;SDS011;68405;47.190;27.558;2023-03-23T03:26:11;58.00;;;35.20;;
78838;SDS011;68405;47.190;27.558;2023-03-23T03:28:45;58.20;;;36.10;;
78838;SDS011;68405;47.190;27.558;2023-03-23T03:31:19;56.80;;;35.50;;
78838;SDS011;68405;47.190;27.558;2023-03-23T03:33:53;67.10;;;40.50;;
78838;SDS011;68405;47.190;27.558;2023-03-23T03:39:04;65.90;;;39.50;;
78838;SDS011;68405;47.190;27.558;2023-03-23T03:41:37;55.40;;;34.30;;
78838;SDS011;68405;47.190;27.558;2023-03-23T03:44:09;59.50;;;36.30;;
78838;SDS011;68405;47.190;27.558;2023-03-23T03:46:41;64.20;;;36.30;;
78838;SDS011;68405;47.190;27.558;2023-03-23T03:49:13;59.10;;;35.10;;
78838;SDS011;68405;47.190;27.558;2023-03-23T03:51:44;64.40;;;38.20;;
78838;SDS011;68405;47.190;27.558;2023-03-23T03:54:16;70.90;;;42.80;;
78838;SDS011;68405;47.190;27.558;2023-03-23T03:56:48;69.50;;;40.10;;
78838;SDS011;68405;47.190;27.558;2023-03-23T03:59:20;53.50;;;32.20;;
78838;SDS011;68405;47.190;27.558;2023-03-23T04:01:51;51.70;;;31.30;;
78838;SDS011;68405;47.190;27.558;2023-03-23T04:04:23;58.50;;;33.80;;
78838;SDS011;68405;47.190;27.558;2023-03-23T04:06:55;58.90;;;35.80;;
78838;SDS011;68405;47.190;27.558;2023-03-23T04:09:27;70.30;;;41.90;;
78838;SDS011;68405;47.190;27.558;2023-03-23T04:11:59;66.20;;;38.10;;
78838;SDS011;68405;47.190;27.558;2023-03-23T04:14:31;47.70;;;28.50;;
78838;SDS011;68405;47.190;27.558;2023-03-23T04:17:03;45.10;;;27.70;;
78838;SDS011;68405;47.190;27.558;2023-03-23T04:19:37;43.90;;;28.20;;
78838;SDS011;68405;47.190;27.558;2023-03-23T04:22:09;46.90;;;29.10;;
78838;SDS011;68405;47.190;27.558;2023-03-23T04:24:41;58.50;;;35.70;;
78838;SDS011;68405;47.190;27.558;2023-03-23T04:27:13;54.40;;;33.70;;
78838;SDS011;68405;47.190;27.558;2023-03-23T04:29:45;45.80;;;27.50;;
78838;SDS011;68405;47.190;27.558;2023-03-23T04:32:18;39.50;;;26.50;;
78838;SDS011;68405;47.190;27.558;2023-03-23T04:34:50;43.80;;;26.30;;
78838;SDS011;68405;47.190;27.558;2023-03-23T04:37:21;42.60;;;26.60;;
78838;SDS011;68405;47.190;27.558;2023-03-23T04:39:57;41.30;;;25.90;;
78838;SDS011;68405;47.190;27.558;2023-03-23T04:42:30;53.90;;;33.00;;
78838;SDS011;68405;47.190;27.558;2023-03-23T04:45:02;44.80;;;29.00;;
78838;SDS011;68405;47.190;27.558;2023-03-23T04:47:36;47.50;;;26.80;;
78838;SDS011;68405;47.190;27.558;2023-03-23T04:50:10;38.90;;;26.00;;
78838;SDS011;68405;47.190;27.558;2023-03-23T04:52:42;38.70;;;24.90;;
78838;SDS011;68405;47.190;27.558;2023-03-23T04:55:14;39.50;;;24.80;;
78838;SDS011;68405;47.190;27.558;2023-03-23T04:57:47;37.40;;;24.00;;
78838;SDS011;68405;47.190;27.558;2023-03-23T05:00:20;36.50;;;25.70;;
78838;SDS011;68405;47.190;27.558;2023-03-23T05:02:52;34.00;;;22.90;;
78838;SDS011;68405;47.190;27.558;2023-03-23T05:05:24;35.10;;;23.70;;
78838;SDS011;68405;47.190;27.558;2023-03-23T05:07:58;34.40;;;23.50;;
78838;SDS011;68405;47.190;27.558;2023-03-23T05:10:31;33.80;;;22.60;;
78838;SDS011;68405;47.190;27.558;2023-03-23T05:13:02;33.50;;;23.00;;
78838;SDS011;68405;47.190;27.558;2023-03-23T05:15:35;32.20;;;22.20;;
78838;SDS011;68405;47.190;27.558;2023-03-23T05:18:07;31.80;;;21.20;;
78838;SDS011;68405;47.190;27.558;2023-03-23T05:20:39;30.40;;;23.30;;
78838;SDS011;68405;47.190;27.558;2023-03-23T05:23:11;31.20;;;20.80;;
78838;SDS011;68405;47.190;27.558;2023-03-23T05:25:44;30.90;;;23.10;;
78838;SDS011;68405;47.190;27.558;2023-03-23T05:28:22;31.90;;;22.20;;
78838;SDS011;68405;47.190;27.558;2023-03-23T05:30:55;32.70;;;22.90;;
78838;SDS011;68405;47.190;27.558;2023-03-23T05:33:27;31.60;;;22.70;;
78838;SDS011;68405;47.190;27.558;2023-03-23T05:35:59;31.70;;;22.50;;
78838;SDS011;68405;47.190;27.558;2023-03-23T05:38:32;31.60;;;23.90;;
78838;SDS011;68405;47.190;27.558;2023-03-23T05:41:05;31.60;;;22.20;;
78838;SDS011;68405;47.190;27.558;2023-03-23T05:43:37;31.60;;;23.40;;
78838;SDS011;68405;47.190;27.558;2023-03-23T05:46:09;32.90;;;23.80;;
78838;SDS011;68405;47.190;27.558;2023-03-23T05:48:40;28.10;;;24.20;;
78838;SDS011;68405;47.190;27.558;2023-03-23T05:51:12;34.20;;;27.00;;
78838;SDS011;68405;47.190;27.558;2023-03-23T05:53:44;33.30;;;24.30;;
78838;SDS011;68405;47.190;27.558;2023-03-23T05:56:16;27.70;;;24.20;;
78838;SDS011;68405;47.190;27.558;2023-03-23T05:58:49;28.50;;;22.20;;
78838;SDS011;68405;47.190;27.558;2023-03-23T06:01:21;24.70;;;20.90;;
78838;SDS011;68405;47.190;27.558;2023-03-23T06:03:53;26.80;;;21.80;;
78838;SDS011;68405;47.190;27.558;2023-03-23T06:06:27;25.90;;;20.60;;
78838;SDS011;68405;47.190;27.558;2023-03-23T06:09:00;23.10;;;19.60;;
78838;SDS011;68405;47.190;27.558;2023-03-23T06:11:32;26.30;;;20.40;;
78838;SDS011;68405;47.190;27.558;2023-03-23T06:14:04;23.40;;;20.00;;
78838;SDS011;68405;47.190;27.558;2023-03-23T06:16:36;25.10;;;20.90;;
78838;SDS011;68405;47.190;27.558;2023-03-23T06:19:08;23.50;;;21.00;;
78838;SDS011;68405;47.190;27.558;2023-03-23T06:21:41;25.20;;;21.10;;
78838;SDS011;68405;47.190;27.558;2023-03-23T06:24:13;25.10;;;21.10;;
78838;SDS011;68405;47.190;27.558;2023-03-23T06:26:44;23.10;;;19.90;;
78838;SDS011;68405;47.190;27.558;2023-03-23T06:29:17;24.10;;;19.30;;
78838;SDS011;68405;47.190;27.558;2023-03-23T06:31:49;24.50;;;21.10;;
78838;SDS011;68405;47.190;27.558;2023-03-23T06:34:25;23.30;;;20.90;;
78838;SDS011;68405;47.190;27.558;2023-03-23T06:36:57;23.40;;;21.00;;
78838;SDS011;68405;47.190;27.558;2023-03-23T06:39:29;25.50;;;19.90;;
78838;SDS011;68405;47.190;27.558;2023-03-23T06:42:00;25.50;;;21.50;;
78838;SDS011;68405;47.190;27.558;2023-03-23T06:44:33;23.40;;;21.00;;
78838;SDS011;68405;47.190;27.558;2023-03-23T06:47:06;26.30;;;23.70;;
78838;SDS011;68405;47.190;27.558;2023-03-23T06:49:38;23.80;;;21.40;;
78838;SDS011;68405;47.190;27.558;2023-03-23T06:52:09;24.40;;;21.60;;
78838;SDS011;68405;47.190;27.558;2023-03-23T06:54:41;23.10;;;20.60;;
78838;SDS011;68405;47.190;27.558;2023-03-23T06:57:13;22.70;;;20.30;;
78838;SDS011;68405;47.190;27.558;2023-03-23T06:59:45;21.80;;;19.30;;
78838;SDS011;68405;47.190;27.558;2023-03-23T07:02:17;18.10;;;15.90;;
78838;SDS011;68405;47.190;27.558;2023-03-23T07:04:50;19.00;;;17.00;;
78838;SDS011;68405;47.190;27.558;2023-03-23T07:07:22;19.40;;;17.10;;
78838;SDS011;68405;47.190;27.558;2023-03-23T07:09:54;20.10;;;15.50;;
78838;SDS011;68405;47.190;27.558;2023-03-23T07:12:26;19.30;;;16.80;;
78838;SDS011;68405;47.190;27.558;2023-03-23T07:14:58;18.90;;;17.00;;
78838;SDS011;68405;47.190;27.558;2023-03-23T07:17:30;23.30;;;19.00;;
78838;SDS011;68405;47.190;27.558;2023-03-23T07:20:03;22.60;;;19.60;;
78838;SDS011;68405;47.190;27.558;2023-03-23T07:22:36;20.60;;;18.50;;
78838;SDS011;68405;47.190;27.558;2023-03-23T07:25:08;22.60;;;19.80;;
78838;SDS011;68405;47.190;27.558;2023-03-23T07:27:40;26.50;;;22.40;;
78838;SDS011;68405;47.190;27.558;2023-03-23T07:30:14;24.90;;;21.60;;
78838;SDS011;68405;47.190;27.558;2023-03-23T07:32:46;28.20;;;23.40;;
78838;SDS011;68405;47.190;27.558;2023-03-23T07:35:18;21.30;;;18.80;;
78838;SDS011;68405;47.190;27.558;2023-03-23T07:37:50;23.80;;;21.30;;
78838;SDS011;68405;47.190;27.558;2023-03-23T07:40:23;19.60;;;16.80;;
78838;SDS011;68405;47.190;27.558;2023-03-23T07:42:56;20.30;;;17.20;;
78838;SDS011;68405;47.190;27.558;2023-03-23T07:45:29;21.70;;;19.50;;
78838;SDS011;68405;47.190;27.558;2023-03-23T07:48:01;15.90;;;14.50;;
78838;SDS011;68405;47.190;27.558;2023-03-23T07:50:33;16.40;;;14.60;;
78838;SDS011;68405;47.190;27.558;2023-03-23T07:53:06;13.70;;;12.30;;
78838;SDS011;68405;47.190;27.558;2023-03-23T07:55:38;14.00;;;12.70;;
78838;SDS011;68405;47.190;27.558;2023-03-23T07:58:10;15.80;;;14.20;;
78838;SDS011;68405;47.190;27.558;2023-03-23T08:00:48;17.50;;;15.20;;
78838;SDS011;68405;47.190;27.558;2023-03-23T08:03:22;18.50;;;16.70;;
78838;SDS011;68405;47.190;27.558;2023-03-23T08:05:54;18.50;;;16.60;;
78838;SDS011;68405;47.190;27.558;2023-03-23T08:08:29;18.70;;;16.70;;
78838;SDS011;68405;47.190;27.558;2023-03-23T08:11:02;24.10;;;17.90;;
78838;SDS011;68405;47.190;27.558;2023-03-23T08:13:35;20.70;;;18.50;;
78838;SDS011;68405;47.190;27.558;2023-03-23T08:16:07;24.60;;;19.30;;
78838;SDS011;68405;47.190;27.558;2023-03-23T08:18:39;20.60;;;16.70;;
78838;SDS011;68405;47.190;27.558;2023-03-23T08:21:12;23.20;;;18.90;;
78838;SDS011;68405;47.190;27.558;2023-03-23T08:23:44;24.40;;;19.50;;
78838;SDS011;68405;47.190;27.558;2023-03-23T08:26:16;20.90;;;16.50;;
78838;SDS011;68405;47.190;27.558;2023-03-23T08:28:48;21.50;;;18.40;;
78838;SDS011;68405;47.190;27.558;2023-03-23T08:31:20;24.00;;;19.10;;
78838;SDS011;68405;47.190;27.558;2023-03-23T08:33:53;22.50;;;17.60;;
78838;SDS011;68405;47.190;27.558;2023-03-23T08:36:25;22.40;;;18.10;;
78838;SDS011;68405;47.190;27.558;2023-03-23T08:38:57;20.20;;;18.10;;
78838;SDS011;68405;47.190;27.558;2023-03-23T08:41:29;18.60;;;16.30;;
78838;SDS011;68405;47.190;27.558;2023-03-23T08:44:02;18.90;;;16.50;;
78838;SDS011;68405;47.190;27.558;2023-03-23T08:46:36;21.50;;;16.90;;
78838;SDS011;68405;47.190;27.558;2023-03-23T08:49:09;23.40;;;17.20;;
78838;SDS011;68405;47.190;27.558;2023-03-23T08:51:41;19.30;;;16.00;;
78838;SDS011;68405;47.190;27.558;2023-03-23T08:54:13;17.20;;;15.00;;
78838;SDS011;68405;47.190;27.558;2023-03-23T08:56:45;18.00;;;15.80;;
78838;SDS011;68405;47.190;27.558;2023-03-23T08:59:18;22.30;;;18.20;;
78838;SDS011;68405;47.190;27.558;2023-03-23T09:01:50;20.00;;;17.80;;
78838;SDS011;68405;47.190;27.558;2023-03-23T09:04:23;21.40;;;17.90;;
78838;SDS011;68405;47.190;27.558;2023-03-23T09:06:55;21.10;;;17.40;;
78838;SDS011;68405;47.190;27.558;2023-03-23T09:09:27;20.60;;;16.80;;
78838;SDS011;68405;47.190;27.558;2023-03-23T09:12:02;20.40;;;18.00;;
78838;SDS011;68405;47.190;27.558;2023-03-23T09:14:35;23.40;;;19.60;;
78838;SDS011;68405;47.190;27.558;2023-03-23T09:17:07;19.60;;;16.80;;
78838;SDS011;68405;47.190;27.558;2023-03-23T09:19:40;19.30;;;17.10;;
78838;SDS011;68405;47.190;27.558;2023-03-23T09:22:12;16.80;;;14.80;;
78838;SDS011;68405;47.190;27.558;2023-03-23T09:24:48;16.00;;;14.30;;
78838;SDS011;68405;47.190;27.558;2023-03-23T09:27:21;14.70;;;13.00;;
78838;SDS011;68405;47.190;27.558;2023-03-23T09:29:53;15.00;;;13.50;;
78838;SDS011;68405;47.190;27.558;2023-03-23T09:32:25;15.50;;;14.00;;
78838;SDS011;68405;47.190;27.558;2023-03-23T09:34:57;16.20;;;13.20;;
78838;SDS011;68405;47.190;27.558;2023-03-23T09:37:30;14.10;;;12.70;;
78838;SDS011;68405;47.190;27.558;2023-03-23T09:40:04;15.60;;;13.30;;
78838;SDS011;68405;47.190;27.558;2023-03-23T09:42:46;15.70;;;13.10;;
78838;SDS011;68405;47.190;27.558;2023-03-23T09:45:29;15.60;;;13.50;;
78838;SDS011;68405;47.190;27.558;2023-03-23T09:51:02;15.20;;;13.20;;
78838;SDS011;68405;47.190;27.558;2023-03-23T09:53:45;16.60;;;13.80;;
78838;SDS011;68405;47.190;27.558;2023-03-23T09:56:21;16.20;;;13.10;;
78838;SDS011;68405;47.190;27.558;2023-03-23T09:58:56;18.10;;;14.00;;
78838;SDS011;68405;47.190;27.558;2023-03-23T10:01:32;15.50;;;12.70;;
78838;SDS011;68405;47.190;27.558;2023-03-23T10:04:07;15.70;;;13.90;;
78838;SDS011;68405;47.190;27.558;2023-03-23T10:06:45;13.90;;;12.10;;
78838;SDS011;68405;47.190;27.558;2023-03-23T10:09:18;13.30;;;11.00;;
78838;SDS011;68405;47.190;27.558;2023-03-23T10:11:53;12.40;;;10.10;;
78838;SDS011;68405;47.190;27.558;2023-03-23T10:14:39;12.30;;;10.70;;
78838;SDS011;68405;47.190;27.558;2023-03-23T10:17:22;11.60;;;9.00;;
78838;SDS011;68405;47.190;27.558;2023-03-23T10:20:09;9.40;;;8.30;;
78838;SDS011;68405;47.190;27.558;2023-03-23T10:23:01;11.50;;;9.70;;
78838;SDS011;68405;47.190;27.558;2023-03-23T10:25:43;12.20;;;9.60;;
78838;SDS011;68405;47.190;27.558;2023-03-23T10:28:24;10.40;;;8.30;;
78838;SDS011;68405;47.190;27.558;2023-03-23T10:31:10;10.60;;;9.30;;
78838;SDS011;68405;47.190;27.558;2023-03-23T10:33:48;12.00;;;9.60;;
78838;SDS011;68405;47.190;27.558;2023-03-23T10:36:23;10.40;;;8.20;;
78838;SDS011;68405;47.190;27.558;2023-03-23T10:39:02;9.90;;;8.80;;
78838;SDS011;68405;47.190;27.558;2023-03-23T10:41:41;13.40;;;9.00;;
78838;SDS011;68405;47.190;27.558;2023-03-23T10:44:15;9.90;;;8.60;;
78838;SDS011;68405;47.190;27.558;2023-03-23T10:46:49;11.30;;;9.10;;
78838;SDS011;68405;47.190;27.558;2023-03-23T10:49:27;12.90;;;9.00;;
78838;SDS011;68405;47.190;27.558;2023-03-23T10:52:05;11.00;;;8.60;;
78838;SDS011;68405;47.190;27.558;2023-03-23T10:54:49;13.00;;;9.00;;
78838;SDS011;68405;47.190;27.558;2023-03-23T10:57:26;12.60;;;9.40;;
78838;SDS011;68405;47.190;27.558;2023-03-23T11:00:00;11.40;;;9.90;;
78838;SDS011;68405;47.190;27.558;2023-03-23T11:02:40;11.60;;;9.10;;
78838;SDS011;68405;47.190;27.558;2023-03-23T11:05:18;10.80;;;8.40;;
78838;SDS011;68405;47.190;27.558;2023-03-23T11:07:53;9.30;;;8.00;;
78838;SDS011;68405;47.190;27.558;2023-03-23T11:10:28;13.20;;;8.00;;
78838;SDS011;68405;47.190;27.558;2023-03-23T11:13:09;9.80;;;7.60;;
78838;SDS011;68405;47.190;27.558;2023-03-23T11:15:46;8.90;;;7.40;;
78838;SDS011;68405;47.190;27.558;2023-03-23T11:18:20;11.70;;;7.90;;
78838;SDS011;68405;47.190;27.558;2023-03-23T11:20:55;10.60;;;7.50;;
78838;SDS011;68405;47.190;27.558;2023-03-23T11:23:29;11.60;;;7.80;;
78838;SDS011;68405;47.190;27.558;2023-03-23T11:26:06;9.10;;;7.90;;
78838;SDS011;68405;47.190;27.558;2023-03-23T11:28:45;11.10;;;8.20;;
78838;SDS011;68405;47.190;27.558;2023-03-23T11:31:22;10.40;;;7.70;;
78838;SDS011;68405;47.190;27.558;2023-03-23T11:33:58;9.80;;;8.00;;
78838;SDS011;68405;47.190;27.558;2023-03-23T11:36:34;13.20;;;8.20;;
78838;SDS011;68405;47.190;27.558;2023-03-23T11:39:20;10.00;;;8.70;;
78838;SDS011;68405;47.190;27.558;2023-03-23T11:41:57;10.90;;;7.40;;
78838;SDS011;68405;47.190;27.558;2023-03-23T11:44:34;10.30;;;7.70;;
78838;SDS011;68405;47.190;27.558;2023-03-23T11:47:15;10.50;;;7.00;;
78838;SDS011;68405;47.190;27.558;2023-03-23T11:49:55;9.50;;;7.40;;
78838;SDS011;68405;47.190;27.558;2023-03-23T11:52:40;7.80;;;6.40;;
78838;SDS011;68405;47.190;27.558;2023-03-23T11:55:19;11.00;;;6.80;;
78838;SDS011;68405;47.190;27.558;2023-03-23T11:57:55;9.90;;;7.80;;
78838;SDS011;68405;47.190;27.558;2023-03-23T12:00:37;12.30;;;7.80;;
78838;SDS011;68405;47.190;27.558;2023-03-23T12:03:34;9.40;;;6.90;;
78838;SDS011;68405;47.190;27.558;2023-03-23T12:06:35;8.90;;;7.00;;
78838;SDS011;68405;47.190;27.558;2023-03-23T12:09:23;11.10;;;7.10;;
78838;SDS011;68405;47.190;27.558;2023-03-23T12:12:08;9.10;;;6.40;;
78838;SDS011;68405;47.190;27.558;2023-03-23T12:14:59;9.30;;;6.40;;
78838;SDS011;68405;47.190;27.558;2023-03-23T12:17:40;10.10;;;7.30;;
78838;SDS011;68405;47.190;27.558;2023-03-23T12:20:27;10.80;;;7.10;;
78838;SDS011;68405;47.190;27.558;2023-03-23T12:23:11;8.80;;;7.30;;
78838;SDS011;68405;47.190;27.558;2023-03-23T12:29:11;11.70;;;7.50;;
78838;SDS011;68405;47.190;27.558;2023-03-23T12:31:59;8.50;;;6.10;;
78838;SDS011;68405;47.190;27.558;2023-03-23T12:35:00;9.30;;;7.50;;
78838;SDS011;68405;47.190;27.558;2023-03-23T12:37:48;10.70;;;6.90;;
78838;SDS011;68405;47.190;27.558;2023-03-23T12:40:39;7.60;;;6.70;;
78838;SDS011;68405;47.190;27.558;2023-03-23T12:43:23;9.90;;;7.20;;
78838;SDS011;68405;47.190;27.558;2023-03-23T12:49:04;10.60;;;7.10;;
78838;SDS011;68405;47.190;27.558;2023-03-23T12:51:42;9.60;;;6.90;;
78838;SDS011;68405;47.190;27.558;2023-03-23T12:54:19;10.60;;;6.80;;
78838;SDS011;68405;47.190;27.558;2023-03-23T12:57:02;9.40;;;7.70;;
78838;SDS011;68405;47.190;27.558;2023-03-23T12:59:39;10.10;;;7.50;;
78838;SDS011;68405;47.190;27.558;2023-03-23T13:02:19;11.00;;;7.70;;
78838;SDS011;68405;47.190;27.558;2023-03-23T13:04:58;12.40;;;7.50;;
78838;SDS011;68405;47.190;27.558;2023-03-23T13:07:35;9.40;;;7.90;;
78838;SDS011;68405;47.190;27.558;2023-03-23T13:10:15;9.40;;;7.60;;
78838;SDS011;68405;47.190;27.558;2023-03-23T13:12:52;10.00;;;7.60;;
78838;SDS011;68405;47.190;27.558;2023-03-23T13:15:29;10.60;;;6.70;;
78838;SDS011;68405;47.190;27.558;2023-03-23T13:18:16;10.20;;;8.50;;
78838;SDS011;68405;47.190;27.558;2023-03-23T13:20:57;9.30;;;7.50;;
78838;SDS011;68405;47.190;27.558;2023-03-23T13:23:38;10.70;;;7.90;;
78838;SDS011;68405;47.190;27.558;2023-03-23T13:26:14;10.70;;;7.90;;
78838;SDS011;68405;47.190;27.558;2023-03-23T13:28:51;11.80;;;8.30;;
78838;SDS011;68405;47.190;27.558;2023-03-23T13:31:27;10.50;;;7.90;;
78838;SDS011;68405;47.190;27.558;2023-03-23T13:34:05;11.50;;;8.00;;
78838;SDS011;68405;47.190;27.558;2023-03-23T13:36:52;11.40;;;8.40;;
78838;SDS011;68405;47.190;27.558;2023-03-23T13:39:28;12.10;;;8.00;;
78838;SDS011;68405;47.190;27.558;2023-03-23T13:42:03;11.40;;;7.80;;
78838;SDS011;68405;47.190;27.558;2023-03-23T13:45:07;14.70;;;8.90;;
78838;SDS011;68405;47.190;27.558;2023-03-23T13:47:50;12.60;;;8.20;;
78838;SDS011;68405;47.190;27.558;2023-03-23T13:50:50;11.00;;;8.00;;
78838;SDS011;68405;47.190;27.558;2023-03-23T13:53:26;11.20;;;7.60;;
78838;SDS011;68405;47.190;27.558;2023-03-23T13:56:06;11.90;;;8.10;;
78838;SDS011;68405;47.190;27.558;2023-03-23T13:58:47;14.60;;;7.90;;
78838;SDS011;68405;47.190;27.558;2023-03-23T14:01:33;10.80;;;8.60;;
78838;SDS011;68405;47.190;27.558;2023-03-23T14:04:11;11.40;;;8.10;;
78838;SDS011;68405;47.190;27.558;2023-03-23T14:06:47;11.60;;;8.60;;
78838;SDS011;68405;47.190;27.558;2023-03-23T14:09:39;10.30;;;7.80;;
78838;SDS011;68405;47.190;27.558;2023-03-23T14:12:15;11.40;;;8.40;;
78838;SDS011;68405;47.190;27.558;2023-03-23T14:14:50;10.30;;;7.80;;
78838;SDS011;68405;47.190;27.558;2023-03-23T14:17:31;12.00;;;8.50;;
78838;SDS011;68405;47.190;27.558;2023-03-23T14:20:16;10.50;;;7.50;;
78838;SDS011;68405;47.190;27.558;2023-03-23T14:22:54;14.30;;;7.70;;
78838;SDS011;68405;47.190;27.558;2023-03-23T14:25:28;11.60;;;7.50;;
78838;SDS011;68405;47.190;27.558;2023-03-23T14:28:01;12.30;;;8.00;;
78838;SDS011;68405;47.190;27.558;2023-03-23T14:30:35;12.80;;;8.20;;
78838;SDS011;68405;47.190;27.558;2023-03-23T14:33:09;9.50;;;7.10;;
78838;SDS011;68405;47.190;27.558;2023-03-23T14:35:42;11.40;;;7.70;;
78838;SDS011;68405;47.190;27.558;2023-03-23T14:38:17;11.80;;;8.40;;
78838;SDS011;68405;47.190;27.558;2023-03-23T14:40:55;12.90;;;7.90;;
78838;SDS011;68405;47.190;27.558;2023-03-23T14:43:33;18.60;;;9.10;;
78838;SDS011;68405;47.190;27.558;2023-03-23T14:46:07;12.80;;;8.70;;
78838;SDS011;68405;47.190;27.558;2023-03-23T14:48:40;12.00;;;9.00;;
78838;SDS011;68405;47.190;27.558;2023-03-23T14:51:17;12.00;;;9.00;;
78838;SDS011;68405;47.190;27.558;2023-03-23T14:53:50;13.30;;;8.90;;
78838;SDS011;68405;47.190;27.558;2023-03-23T14:56:24;13.10;;;9.20;;
78838;SDS011;68405;47.190;27.558;2023-03-23T14:59:05;13.30;;;8.40;;
78838;SDS011;68405;47.190;27.558;2023-03-23T15:01:37;13.30;;;8.50;;
78838;SDS011;68405;47.190;27.558;2023-03-23T15:04:12;13.20;;;8.90;;
78838;SDS011;68405;47.190;27.558;2023-03-23T15:06:48;12.50;;;8.80;;
78838;SDS011;68405;47.190;27.558;2023-03-23T15:09:22;10.20;;;8.90;;
78838;SDS011;68405;47.190;27.558;2023-03-23T15:11:56;12.40;;;8.80;;
78838;SDS011;68405;47.190;27.558;2023-03-23T15:14:30;11.10;;;8.60;;
78838;SDS011;68405;47.190;27.558;2023-03-23T15:17:10;14.10;;;9.30;;
78838;SDS011;68405;47.190;27.558;2023-03-23T15:19:52;16.90;;;8.50;;